首页
METAR-TAF:

METAR-TAF

机场 :

Muir Army Airfield

Fort Indiantown Gap, 宾夕法尼亚州, 美国

纬度: 40-26N, 经度: 076-34W, 海拔: 149米

当前天气观测

该预报发布于32分钟前的18:56 UTC
风速7节,风向西北,有时为18节阵风,在西转西北北转东北之间变化
温度 7°C
湿度 33%
气压 1025 hPa
能見度: 16.1公里
多云层高于25000英尺

METAR: KMUI 191856Z 32007G18KT 290V020 10SM BKN250 07/M08 A3026 RMK AO2A SLP253 T00741082

时间: 14:28 (19:28 UTC)

预报

该预报发布于28分钟前的19:00 UTC
预报有效从19日的 19点(UTC)到 21日的 01点(UTC)
风速12节,风向西北,有时为20节阵风
能见度10公里或以上
多云层高于25000英尺
成为
从 19日的 22点(UTC)到 19日的 23点(UTC)
风速6节,风向西转西北
能见度10公里或以上
天空无云
成为
从 20日的 14点(UTC)到 20日的 15点(UTC)
风速9节,风向西北
能見度: 2011
少量云层高于8000英尺
散云层高于10000英尺

TAF: KMUI 191900Z 1919/2101 31012G20KT 9999 BKN250 QNH3026INS BECMG 1922/1923 30006KT 9999 SKC 510023 QNH3028INS BECMG 2014/2015 32009KT 9999 FEW080 SCT100 QNH3034INS TX08/2019Z TNM02/2008Z LAST NO AMDS AFT 2005 NEXT 2011

超过4000个机场的气象观测和天气预报(METAR&TAF报告)。

可查询的气象台以黄色和红色小点在地图上表示。

将鼠标移到小点上方,可查看气象台名称。

然后点击查看天气观测和预报。

如需切换地图:点击带黑十字的绿色按钮放大地图;点击带横线的绿色按钮缩小地图;或者点击绿色箭头查看邻近地区的地图。


METAR-TAF: